Time;durP1;ratioP1;P1;durP2;ratioP2;P2;SDS_P1;SDS_P2;PMS_P1;PMS_P2;Temp;Humidity;BMP_temperature;BMP_pressure;BME280_temperature;BME280_humidity;BME280_pressure;Samples;Min_cycle;Max_cycle;Signal;HPM_P1;HPM_P2
2022/08/16 00:01:21;;;;;;;6.00;5.28;;;13.40;99.90;;;;;;5055315;28;20040;-55
2022/08/16 00:03:51;;;;;;;6.70;5.18;;;13.40;99.90;;;;;;5040649;28;20536;-55
2022/08/16 00:06:18;;;;;;;9.20;5.53;;;13.40;99.90;;;;;;5037088;28;20041;-55
2022/08/16 00:08:46;;;;;;;8.85;5.05;;;13.40;99.90;;;;;;5051121;28;20036;-54
2022/08/16 00:11:13;;;;;;;10.43;5.68;;;13.40;99.90;;;;;;5058768;28;20575;-55
2022/08/16 00:13:44;;;;;;;5.47;4.97;;;13.40;99.90;;;;;;5057455;28;20059;-55
2022/08/16 00:16:26;;;;;;;12.80;5.35;;;13.40;99.90;;;;;;5058662;28;20041;-54
2022/08/16 00:19:15;;;;;;;8.05;5.25;;;13.50;99.90;;;;;;5058114;28;20052;-55
2022/08/16 00:21:43;;;;;;;6.57;4.72;;;13.50;99.90;;;;;;5056911;28;20032;-55
2022/08/16 00:24:10;;;;;;;8.27;5.68;;;13.40;99.90;;;;;;5058421;28;20131;-55
2022/08/16 00:26:39;;;;;;;8.43;5.60;;;13.40;99.90;;;;;;5057656;28;20040;-55
2022/08/16 00:29:13;;;;;;;14.93;5.80;;;13.40;99.90;;;;;;5058386;28;20048;-56
2022/08/16 00:31:44;;;;;;;8.13;5.93;;;13.40;99.90;;;;;;5057054;28;20053;-53
2022/08/16 00:34:31;;;;;;;6.18;5.13;;;13.40;99.90;;;;;;5056813;28;20363;-53
2022/08/16 00:37:13;;;;;;;6.15;5.13;;;13.40;99.90;;;;;;5058997;28;20465;-55
2022/08/16 00:39:46;;;;;;;7.38;5.15;;;13.30;99.90;;;;;;5056698;28;20289;-55
2022/08/16 00:42:14;;;;;;;8.57;5.88;;;13.40;99.90;;;;;;5057267;28;20530;-55
2022/08/16 00:45:07;;;;;;;10.07;5.97;;;13.40;99.90;;;;;;5054878;28;20504;-55
2022/08/16 00:47:40;;;;;;;12.05;5.95;;;13.30;99.90;;;;;;5055277;28;20040;-56
2022/08/16 00:50:18;;;;;;;6.55;5.82;;;13.30;99.90;;;;;;5054164;28;20555;-55
2022/08/16 00:52:44;;;;;;;9.43;6.30;;;13.30;99.90;;;;;;5053103;28;20048;-56
2022/08/16 00:55:20;;;;;;;6.68;5.85;;;13.20;99.90;;;;;;5053436;28;20063;-56
2022/08/16 00:57:50;;;;;;;6.88;5.82;;;13.20;99.90;;;;;;5054829;28;20181;-54
2022/08/16 01:00:29;;;;;;;8.30;5.82;;;13.20;99.90;;;;;;5053351;28;20518;-55
2022/08/16 01:03:06;;;;;;;8.43;7.25;;;13.20;99.90;;;;;;5046763;28;20465;-54
2022/08/16 01:05:38;;;;;;;7.97;6.05;;;13.20;99.90;;;;;;5032418;28;20859;-56
2022/08/16 01:08:06;;;;;;;7.20;6.47;;;13.20;99.90;;;;;;5038562;28;20568;-55
2022/08/16 01:10:54;;;;;;;9.23;6.47;;;13.20;99.90;;;;;;5054388;28;20130;-55
2022/08/16 01:13:30;;;;;;;8.75;6.80;;;13.10;99.90;;;;;;5053926;28;20582;-55
2022/08/16 01:15:59;;;;;;;12.52;6.35;;;13.10;99.90;;;;;;5054900;28;20506;-55
2022/08/16 01:18:41;;;;;;;7.80;6.22;;;13.00;99.90;;;;;;5054889;28;20443;-55
2022/08/16 01:21:33;;;;;;;9.88;6.25;;;13.00;99.90;;;;;;5054942;28;20424;-55
2022/08/16 01:24:31;;;;;;;11.05;6.22;;;13.00;99.90;;;;;;5054507;28;20036;-55
2022/08/16 01:27:32;;;;;;;10.60;7.15;;;13.00;99.90;;;;;;5055303;28;20057;-55
2022/08/16 01:30:06;;;;;;;7.97;6.97;;;13.00;99.90;;;;;;5052569;28;20592;-55
2022/08/16 01:32:49;;;;;;;10.47;8.07;;;13.00;99.90;;;;;;5053797;28;20506;-54
2022/08/16 01:35:44;;;;;;;9.13;7.78;;;13.00;99.90;;;;;;5052805;28;20047;-55
2022/08/16 01:38:14;;;;;;;9.32;6.55;;;13.00;99.90;;;;;;5054153;28;20056;-55
2022/08/16 01:40:48;;;;;;;13.27;6.80;;;12.90;99.90;;;;;;5053012;28;20057;-55
2022/08/16 01:43:15;;;;;;;14.30;7.28;;;12.90;99.90;;;;;;5053198;28;20052;-56
2022/08/16 01:45:42;;;;;;;;;;;12.90;99.90;;;;;;5053724;28;20059;-57
2022/08/16 01:48:12;;;;;;;8.05;6.32;;;12.80;99.90;;;;;;5053250;28;20279;-55
2022/08/16 01:50:48;;;;;;;8.60;6.30;;;12.80;99.90;;;;;;5053468;28;20052;-55
2022/08/16 01:53:35;;;;;;;7.32;6.60;;;12.80;99.90;;;;;;5051317;28;20045;-55
2022/08/16 01:56:16;;;;;;;7.32;6.35;;;12.80;99.90;;;;;;5052719;28;20052;-54
2022/08/16 01:58:54;;;;;;;10.50;6.72;;;12.90;99.90;;;;;;5051927;28;20049;-55
2022/08/16 02:01:24;;;;;;;12.65;6.63;;;12.90;99.90;;;;;;5051939;28;20052;-57
2022/08/16 02:03:54;;;;;;;9.30;7.22;;;12.90;99.90;;;;;;5046738;28;20278;-54
2022/08/16 02:06:39;;;;;;;9.60;7.07;;;12.90;99.90;;;;;;5031689;28;20529;-56
2022/08/16 02:09:15;;;;;;;12.90;6.93;;;12.90;99.90;;;;;;5051505;28;20067;-56
2022/08/16 02:11:46;;;;;;;14.13;7.10;;;12.90;99.90;;;;;;5051431;28;20056;-56
2022/08/16 02:14:21;;;;;;;8.32;7.35;;;12.90;99.90;;;;;;5051495;28;20052;-56
2022/08/16 02:16:56;;;;;;;10.85;7.03;;;12.90;99.90;;;;;;5051578;28;20041;-56
2022/08/16 02:19:26;;;;;;;12.77;7.55;;;12.90;99.90;;;;;;5052022;28;20048;-54
2022/08/16 02:22:15;;;;;;;8.38;7.10;;;12.90;99.90;;;;;;5053043;28;20136;-56
2022/08/16 02:25:03;;;;;;;;;;;12.90;99.90;;;;;;5052320;28;20098;-54
2022/08/16 02:27:30;;;;;;;7.38;6.50;;;12.90;99.90;;;;;;5052467;28;19924;-56
2022/08/16 02:29:57;;;;;;;9.80;7.45;;;12.90;99.90;;;;;;5052037;28;20529;-55
2022/08/16 02:32:33;;;;;;;10.48;8.15;;;12.90;99.90;;;;;;5052649;28;20268;-56
2022/08/16 02:35:19;;;;;;;12.60;8.13;;;12.90;99.90;;;;;;5051429;28;20059;-55
2022/08/16 02:37:51;;;;;;;10.82;7.68;;;12.90;99.90;;;;;;5052880;28;20048;-55
2022/08/16 02:40:24;;;;;;;10.43;6.88;;;12.90;99.90;;;;;;5051108;28;20159;-55
2022/08/16 02:42:53;;;;;;;9.45;7.15;;;12.80;99.90;;;;;;5050525;28;20048;-57
2022/08/16 02:45:23;;;;;;;10.93;7.60;;;12.90;99.90;;;;;;5052482;28;20371;-55
2022/08/16 02:47:55;;;;;;;9.38;7.35;;;12.90;99.90;;;;;;5051243;28;20328;-56
2022/08/16 02:50:42;;;;;;;10.88;7.13;;;12.80;99.90;;;;;;5037903;28;20033;-56
2022/08/16 02:53:30;;;;;;;9.10;7.53;;;12.80;99.90;;;;;;5036506;28;20040;-55
2022/08/16 02:55:57;;;;;;;9.52;6.43;;;12.80;99.90;;;;;;5050799;28;20259;-55
2022/08/16 02:58:26;;;;;;;9.27;7.13;;;12.80;99.90;;;;;;5050927;28;20229;-56
2022/08/16 03:00:56;;;;;;;8.48;6.97;;;12.80;99.90;;;;;;5050498;28;20462;-54
2022/08/16 03:03:25;;;;;;;11.23;6.97;;;12.80;99.90;;;;;;5047414;28;20217;-55
2022/08/16 03:06:13;;;;;;;9.73;7.35;;;12.80;99.90;;;;;;5042195;28;20061;-55
2022/08/16 03:09:06;;;;;;;9.65;7.25;;;12.80;99.90;;;;;;5044943;28;20036;-55
2022/08/16 03:11:41;;;;;;;8.82;7.60;;;12.80;99.90;;;;;;5050806;28;20051;-55
2022/08/16 03:14:08;;;;;;;;;;;12.80;99.90;;;;;;5053060;28;20497;-55
2022/08/16 03:16:38;;;;;;;14.25;8.82;;;12.80;99.90;;;;;;5049926;28;19950;-56
2022/08/16 03:19:26;;;;;;;10.13;8.52;;;12.80;99.90;;;;;;5051561;28;20568;-55
2022/08/16 03:22:15;;;;;;;12.60;9.18;;;12.70;99.90;;;;;;5050580;28;20041;-56
2022/08/16 03:24:55;;;;;;;14.38;8.90;;;12.70;99.90;;;;;;5050300;28;20044;-56
2022/08/16 03:27:26;;;;;;;15.73;8.98;;;12.70;99.90;;;;;;5050374;28;20063;-55
2022/08/16 03:30:01;;;;;;;10.63;8.68;;;12.80;99.90;;;;;;5050958;28;20582;-54
2022/08/16 03:32:45;;;;;;;9.77;8.48;;;12.80;99.90;;;;;;5051618;28;20048;-56
2022/08/16 03:35:15;;;;;;;14.63;7.72;;;12.80;99.90;;;;;;5052357;28;20056;-55
2022/08/16 03:37:45;;;;;;;16.80;9.45;;;12.80;99.90;;;;;;5051913;28;20056;-55
2022/08/16 03:40:35;;;;;;;17.88;9.50;;;12.80;99.90;;;;;;5051977;28;20675;-54
2022/08/16 03:43:09;;;;;;;16.80;8.75;;;12.80;99.90;;;;;;5051227;28;20048;-56
2022/08/16 03:45:51;;;;;;;13.98;9.90;;;12.80;99.90;;;;;;5051474;28;20051;-55
2022/08/16 03:48:27;;;;;;;11.48;9.00;;;12.70;99.90;;;;;;5052630;28;20072;-55
2022/08/16 03:51:14;;;;;;;19.80;9.15;;;12.70;99.90;;;;;;5051141;28;20622;-55
2022/08/16 03:53:54;;;;;;;18.52;8.80;;;12.70;99.90;;;;;;5051513;28;20048;-56
2022/08/16 03:56:28;;;;;;;11.50;9.20;;;12.70;99.90;;;;;;5051724;28;20076;-56
2022/08/16 03:58:58;;;;;;;9.60;8.38;;;12.70;99.90;;;;;;5052088;28;20668;-55
2022/08/16 04:01:29;;;;;;;12.70;9.07;;;12.70;99.90;;;;;;5051173;28;20513;-55
2022/08/16 04:03:59;;;;;;;19.20;10.18;;;12.60;99.90;;;;;;5051211;28;20127;-56
2022/08/16 04:06:28;;;;;;;14.45;10.13;;;12.60;99.90;;;;;;5046910;28;20056;-55
2022/08/16 04:08:55;;;;;;;;;;;12.60;99.90;;;;;;5044930;28;20548;-56
2022/08/16 04:11:23;;;;;;;13.83;10.27;;;12.60;99.90;;;;;;5049931;28;20329;-55
2022/08/16 04:13:50;;;;;;;11.23;9.48;;;12.60;99.90;;;;;;5050697;28;20475;-53
2022/08/16 04:16:38;;;;;;;16.50;11.02;;;12.60;99.90;;;;;;5051431;28;20814;-55
2022/08/16 04:19:26;;;;;;;10.55;8.52;;;12.60;99.90;;;;;;5054785;28;20056;-56
2022/08/16 04:21:59;;;;;;;9.88;8.32;;;12.60;99.90;;;;;;5055106;28;20143;-55
2022/08/16 04:24:30;;;;;;;11.50;9.07;;;12.60;99.90;;;;;;5054339;28;20601;-54
2022/08/16 04:26:58;;;;;;;10.45;8.27;;;12.60;99.90;;;;;;5055387;28;20542;-55
2022/08/16 04:29:26;;;;;;;17.23;9.23;;;12.60;99.90;;;;;;5056891;28;20482;-56
2022/08/16 04:32:10;;;;;;;12.13;9.57;;;12.60;99.90;;;;;;5054975;28;20052;-55
2022/08/16 04:34:41;;;;;;;17.25;9.80;;;12.60;99.90;;;;;;5054777;28;20704;-56
2022/08/16 04:37:10;;;;;;;14.48;9.98;;;12.60;99.90;;;;;;5055018;28;20044;-56
2022/08/16 04:39:42;;;;;;;10.18;8.20;;;12.60;99.90;;;;;;5055004;28;20057;-56
2022/08/16 04:42:22;;;;;;;10.73;8.15;;;12.60;99.90;;;;;;5055068;28;20295;-55
2022/08/16 04:44:54;;;;;;;9.55;8.45;;;12.60;99.90;;;;;;5054067;28;20068;-56
2022/08/16 04:47:28;;;;;;;13.85;8.05;;;12.60;99.90;;;;;;5055331;28;20044;-56
2022/08/16 04:50:06;;;;;;;10.35;9.23;;;12.70;99.90;;;;;;5055257;28;20052;-56
2022/08/16 04:52:34;;;;;;;9.90;8.63;;;12.70;99.90;;;;;;5053627;28;20427;-56
2022/08/16 04:55:12;;;;;;;10.00;8.60;;;12.70;99.90;;;;;;5054760;28;20677;-54
2022/08/16 04:57:42;;;;;;;11.02;8.32;;;12.80;99.90;;;;;;5054121;28;20052;-56
2022/08/16 05:00:21;;;;;;;10.18;8.25;;;12.80;99.90;;;;;;5054757;28;20048;-53
2022/08/16 05:03:07;;;;;;;9.30;8.35;;;12.80;99.90;;;;;;5053672;28;20438;-53
2022/08/16 05:05:42;;;;;;;11.82;7.97;;;12.90;99.90;;;;;;5054539;28;20710;-54
2022/08/16 05:08:23;;;;;;;14.20;8.95;;;13.00;99.90;;;;;;5048804;28;20930;-56
2022/08/16 05:11:04;;;;;;;11.55;8.52;;;13.10;99.90;;;;;;5051267;28;20514;-55
2022/08/16 05:13:37;;;;;;;10.35;9.18;;;13.10;99.90;;;;;;5053339;28;20465;-55
2022/08/16 05:16:18;;;;;;;13.13;8.33;;;13.20;99.90;;;;;;5054207;28;20352;-52
2022/08/16 05:18:57;;;;;;;11.93;9.40;;;13.30;99.90;;;;;;5054066;28;20242;-52
2022/08/16 05:21:27;;;;;;;13.55;8.70;;;13.40;99.90;;;;;;5054669;28;20147;-53
2022/08/16 05:24:07;;;;;;;10.68;8.23;;;13.50;99.90;;;;;;5052880;28;20072;-53
2022/08/16 05:26:36;;;;;;;14.13;9.18;;;13.60;99.90;;;;;;5038128;28;20048;-54
2022/08/16 05:29:16;;;;;;;14.18;8.27;;;13.60;99.90;;;;;;5053736;28;20206;-53
2022/08/16 05:32:00;;;;;;;8.55;7.38;;;13.70;99.90;;;;;;5053749;28;20106;-52
2022/08/16 05:34:28;;;;;;;13.68;7.72;;;13.90;99.90;;;;;;5053492;28;20522;-53
2022/08/16 05:36:56;;;;;;;7.75;6.95;;;14.00;99.90;;;;;;5053368;28;20114;-51
2022/08/16 05:39:31;;;;;;;7.90;6.82;;;14.00;99.90;;;;;;5053901;28;20044;-55
2022/08/16 05:42:04;;;;;;;10.32;8.10;;;14.10;99.90;;;;;;5053308;28;20770;-55
2022/08/16 05:44:31;;;;;;;11.63;7.57;;;14.20;99.90;;;;;;5053389;28;20375;-55
2022/08/16 05:47:01;;;;;;;10.50;6.35;;;14.20;99.90;;;;;;5052734;28;20168;-53
2022/08/16 05:49:30;;;;;;;13.63;7.30;;;14.30;99.90;;;;;;5053697;28;20044;-53
2022/08/16 05:52:06;;;;;;;7.60;6.88;;;14.30;99.90;;;;;;5052868;28;20055;-53
2022/08/16 05:54:42;;;;;;;7.38;6.60;;;14.40;99.90;;;;;;5036855;28;20048;-52
2022/08/16 05:57:17;;;;;;;11.25;7.55;;;14.50;99.90;;;;;;5027982;28;20164;-55
2022/08/16 05:59:50;;;;;;;12.85;8.13;;;14.60;99.90;;;;;;5017096;28;20600;-52
2022/08/16 06:02:38;;;;;;;12.68;7.45;;;14.60;99.90;;;;;;5037244;28;20075;-52
2022/08/16 06:05:14;;;;;;;10.48;7.38;;;14.70;99.90;;;;;;5035934;28;20044;-54
2022/08/16 06:07:41;;;;;;;7.47;6.68;;;14.80;99.90;;;;;;5048747;28;20126;-55
2022/08/16 06:10:19;;;;;;;6.45;5.72;;;14.80;99.90;;;;;;5021815;28;20474;-54
2022/08/16 06:13:00;;;;;;;7.63;6.57;;;14.90;99.90;;;;;;5047885;28;20179;-54
2022/08/16 06:15:28;;;;;;;13.02;7.20;;;15.00;99.90;;;;;;5051282;28;20068;-51
2022/08/16 06:17:58;;;;;;;7.38;6.68;;;15.10;99.90;;;;;;5052711;28;20079;-53
2022/08/16 06:20:28;;;;;;;9.27;6.55;;;15.20;99.90;;;;;;5052607;28;20477;-53
2022/08/16 06:23:19;;;;;;;6.95;6.18;;;15.20;99.90;;;;;;5039059;28;20056;-56
2022/08/16 06:26:12;;;;;;;8.85;6.57;;;15.30;99.90;;;;;;5036656;28;20166;-54
2022/08/16 06:28:43;;;;;;;10.13;6.40;;;15.40;99.90;;;;;;5052981;28;20048;-53
2022/08/16 06:31:15;;;;;;;6.72;5.97;;;15.50;99.90;;;;;;5053076;28;20063;-53
2022/08/16 06:33:46;;;;;;;9.60;6.20;;;15.60;99.90;;;;;;5052560;28;20051;-56
2022/08/16 06:36:15;;;;;;;6.57;5.90;;;15.70;99.90;;;;;;5053433;28;20044;-56
2022/08/16 06:38:53;;;;;;;9.18;6.00;;;15.80;99.90;;;;;;5051874;28;20123;-56
2022/08/16 06:41:41;;;;;;;7.22;6.15;;;15.80;99.90;;;;;;5052678;28;20597;-54
2022/08/16 06:44:18;;;;;;;7.57;5.95;;;16.00;99.90;;;;;;5051456;28;20048;-55
2022/08/16 06:46:54;;;;;;;6.75;5.50;;;16.00;99.90;;;;;;5051997;28;20461;-55
2022/08/16 06:49:22;;;;;;;8.57;6.47;;;16.10;99.90;;;;;;5051969;28;20083;-57
2022/08/16 06:51:49;;;;;;;6.47;5.50;;;16.20;99.90;;;;;;5050634;28;20257;-56
2022/08/16 06:54:23;;;;;;;6.03;5.43;;;16.30;99.90;;;;;;5050310;28;20052;-56
2022/08/16 06:56:52;;;;;;;13.27;5.78;;;16.40;99.90;;;;;;5054185;28;20040;-55
2022/08/16 06:59:21;;;;;;;9.20;5.53;;;16.50;99.90;;;;;;5051288;28;20090;-53
2022/08/16 07:01:54;;;;;;;7.25;5.82;;;16.50;99.90;;;;;;5050984;28;20049;-52
2022/08/16 07:04:26;;;;;;;9.55;5.88;;;16.60;99.90;;;;;;5051502;28;20047;-54
2022/08/16 07:07:11;;;;;;;8.85;5.82;;;16.70;99.90;;;;;;5052271;28;20554;-53
2022/08/16 07:09:40;;;;;;;7.80;6.03;;;16.90;99.90;;;;;;5057767;28;20403;-53
2022/08/16 07:12:08;;;;;;;6.13;5.45;;;16.90;99.90;;;;;;5037510;28;20075;-54
2022/08/16 07:14:40;;;;;;;9.05;6.03;;;17.00;99.90;;;;;;5051877;28;20553;-52
2022/08/16 07:17:10;;;;;;;7.85;6.15;;;17.10;99.90;;;;;;5035638;28;20141;-54
2022/08/16 07:19:46;;;;;;;6.20;5.35;;;17.20;99.90;;;;;;5053198;28;20473;-54
2022/08/16 07:22:44;;;;;;;;;;;17.40;99.90;;;;;;5051677;28;20146;-53
2022/08/16 07:25:26;;;;;;;10.73;5.82;;;17.50;99.90;;;;;;5051976;28;19924;-54
2022/08/16 07:27:53;;;;;;;6.65;5.07;;;17.60;99.90;;;;;;5050578;28;20468;-53
2022/08/16 07:30:24;;;;;;;5.90;4.85;;;17.80;99.90;;;;;;5051489;28;20042;-55
2022/08/16 07:33:17;;;;;;;7.28;5.47;;;17.90;99.90;;;;;;5038509;28;20094;-53
2022/08/16 07:36:08;;;;;;;6.68;5.93;;;18.00;99.90;;;;;;5052446;28;20048;-56
2022/08/16 07:38:40;;;;;;;5.78;4.90;;;18.20;99.90;;;;;;5051993;28;20179;-55
2022/08/16 07:41:07;;;;;;;8.75;5.22;;;18.30;99.90;;;;;;5052731;28;20108;-57
2022/08/16 07:43:41;;;;;;;6.40;5.35;;;18.40;99.90;;;;;;5051473;28;20612;-54
2022/08/16 07:46:10;;;;;;;7.60;4.93;;;18.50;99.90;;;;;;5052880;28;20047;-53
2022/08/16 07:48:59;;;;;;;7.15;4.85;;;18.60;99.90;;;;;;5052744;28;20033;-53
2022/08/16 07:51:33;;;;;;;5.97;5.03;;;18.80;99.90;;;;;;5051079;28;20045;-53
2022/08/16 07:54:06;;;;;;;6.10;4.70;;;18.90;99.90;;;;;;5056262;28;20048;-52
2022/08/16 07:56:36;;;;;;;6.50;4.57;;;19.10;99.90;;;;;;5040394;28;20139;-50
2022/08/16 07:59:04;;;;;;;8.32;4.68;;;19.50;99.90;;;;;;5055924;28;20044;-52
2022/08/16 08:01:31;;;;;;;7.88;5.50;;;20.30;99.90;;;;;;5055010;28;20048;-52
2022/08/16 08:04:02;;;;;;;13.88;6.43;;;21.00;99.90;;;;;;5054951;28;20044;-52
2022/08/16 08:06:35;;;;;;;7.85;4.90;;;21.70;99.90;;;;;;5039780;28;20045;-50
2022/08/16 08:09:14;;;;;;;7.20;4.20;;;22.30;99.90;;;;;;5054444;28;20059;-53
2022/08/16 08:11:44;;;;;;;4.63;3.90;;;22.80;99.90;;;;;;5040014;28;20546;-52
2022/08/16 08:14:29;;;;;;;7.15;3.92;;;23.20;99.90;;;;;;5054524;28;20502;-49
2022/08/16 08:16:58;;;;;;;6.28;3.53;;;23.70;99.90;;;;;;5055974;28;20254;-50
2022/08/16 08:19:29;;;;;;;5.72;3.33;;;24.00;99.90;;;;;;5055336;28;21231;-52
2022/08/16 08:21:56;;;;;;;4.20;3.60;;;24.30;99.90;;;;;;5055662;28;20155;-51
2022/08/16 08:24:45;;;;;;;5.38;3.60;;;24.60;99.90;;;;;;5054908;28;20048;-53
2022/08/16 08:27:13;;;;;;;7.65;3.28;;;24.80;97.60;;;;;;5055793;28;20151;-51
2022/08/16 08:29:50;;;;;;;;;;;25.00;93.80;;;;;;5056274;28;20052;-49
2022/08/16 08:32:39;;;;;;;8.43;3.95;;;25.10;94.80;;;;;;5056083;28;20033;-51
2022/08/16 08:35:28;;;;;;;3.38;2.80;;;25.20;93.40;;;;;;5054485;28;20059;-53
2022/08/16 08:37:57;;;;;;;12.75;4.40;;;25.30;95.20;;;;;;5055935;28;20053;-65
2022/08/16 08:40:28;;;;;;;7.47;3.15;;;25.30;91.30;;;;;;5033922;28;20045;-65
2022/08/16 08:42:57;;;;;;;8.57;2.85;;;25.30;93.50;;;;;;5034877;28;20048;-63
2022/08/16 08:45:44;;;;;;;7.30;3.50;;;25.40;90.00;;;;;;5034916;28;20040;-64
2022/08/16 08:48:17;;;;;;;5.20;3.47;;;25.40;87.80;;;;;;5035699;28;20069;-64
2022/08/16 08:51:06;;;;;;;8.88;3.92;;;25.40;90.90;;;;;;5034784;28;20722;-65
2022/08/16 08:54:03;;;;;;;5.38;3.70;;;25.40;89.00;;;;;;5035329;28;20052;-63
2022/08/16 08:56:36;;;;;;;7.82;3.70;;;25.50;91.40;;;;;;5019333;28;20059;-64
2022/08/16 08:59:09;;;;;;;7.43;3.58;;;25.50;89.30;;;;;;5035392;28;20058;-64
2022/08/16 09:01:42;;;;;;;4.82;3.80;;;25.60;89.60;;;;;;5034722;28;20110;-63
2022/08/16 09:04:45;;;;;;;6.32;3.42;;;25.70;85.30;;;;;;5034904;28;20053;-61
2022/08/16 09:07:18;;;;;;;4.95;3.53;;;25.70;85.20;;;;;;5053919;28;20128;-61
2022/08/16 09:09:46;;;;;;;9.80;3.53;;;25.70;90.10;;;;;;5055068;28;20048;-61
2022/08/16 09:12:17;;;;;;;4.85;3.35;;;25.80;90.50;;;;;;5040061;28;20029;-61
2022/08/16 09:15:10;;;;;;;5.53;3.92;;;25.90;84.50;;;;;;5050109;28;20084;-65
2022/08/16 09:17:43;;;;;;;5.18;3.97;;;25.90;83.20;;;;;;5054966;28;20052;-63
2022/08/16 09:20:28;;;;;;;8.18;3.83;;;26.00;87.50;;;;;;5053442;28;20761;-63
2022/08/16 09:22:56;;;;;;;3.65;3.20;;;26.00;84.00;;;;;;5054366;28;20045;-66
2022/08/16 09:25:32;;;;;;;5.15;3.45;;;26.10;83.30;;;;;;5054195;28;20043;-62
2022/08/16 09:28:08;;;;;;;5.77;3.03;;;26.30;84.80;;;;;;5054294;28;20045;-67
2022/08/16 09:30:54;;;;;;;4.13;3.20;;;26.50;82.20;;;;;;5054767;28;20048;-65
2022/08/16 09:33:22;;;;;;;5.97;3.58;;;26.70;80.30;;;;;;5054553;28;20067;-69
2022/08/16 09:35:50;;;;;;;4.72;3.47;;;26.90;77.50;;;;;;5055825;28;20071;-64
2022/08/16 09:38:21;;;;;;;6.82;3.75;;;27.00;75.00;;;;;;5056349;28;20480;-64
2022/08/16 09:41:00;;;;;;;4.38;3.28;;;27.20;71.80;;;;;;5054286;28;20132;-64
2022/08/16 09:43:27;;;;;;;8.65;3.40;;;27.20;67.80;;;;;;5055534;28;20059;-66
2022/08/16 09:46:14;;;;;;;6.45;4.10;;;27.30;67.40;;;;;;5053918;28;20048;-65
2022/08/16 09:49:01;;;;;;;;;;;27.30;70.10;;;;;;5056147;28;20040;-65
2022/08/16 09:51:31;;;;;;;5.32;2.38;;;27.50;74.00;;;;;;5055167;28;19928;-66
2022/08/16 09:54:05;;;;;;;8.48;3.50;;;27.60;68.70;;;;;;5055007;28;20098;-66
2022/08/16 09:56:38;;;;;;;4.47;3.10;;;27.70;67.20;;;;;;5055523;28;20079;-66
2022/08/16 09:59:07;;;;;;;4.88;3.40;;;27.80;68.10;;;;;;5055017;28;20048;-66
2022/08/16 10:01:36;;;;;;;6.55;3.65;;;27.90;69.00;;;;;;5055751;28;20064;-65
2022/08/16 10:04:04;;;;;;;3.72;3.17;;;28.00;71.20;;;;;;5054733;28;20166;-66
2022/08/16 10:06:55;;;;;;;;;;;28.10;69.80;;;;;;5054452;28;20040;-66
2022/08/16 10:09:24;;;;;;;3.35;2.95;;;28.20;70.30;;;;;;5052658;28;19946;-66
2022/08/16 10:14:59;;;;;;;3.88;3.47;;;28.30;72.50;;;;;;5047611;28;20048;-65
2022/08/16 10:17:26;;;;;;;7.22;3.67;;;28.40;71.20;;;;;;5053156;28;20041;-65
2022/08/16 10:19:54;;;;;;;4.10;3.40;;;28.40;70.40;;;;;;5036179;28;20102;-67
2022/08/16 10:22:22;;;;;;;5.15;3.15;;;28.50;71.50;;;;;;5054206;28;20218;-67
2022/08/16 10:24:49;;;;;;;5.70;3.80;;;28.50;71.10;;;;;;5048462;28;20041;-66
2022/08/16 10:27:26;;;;;;;4.95;3.38;;;28.60;69.00;;;;;;5037972;28;20041;-67
2022/08/16 10:30:13;;;;;;;;;;;28.60;68.90;;;;;;5054073;28;20041;-66
2022/08/16 10:32:54;;;;;;;3.97;3.38;;;28.60;68.70;;;;;;5051015;28;19930;-68
2022/08/16 10:35:22;;;;;;;4.80;3.92;;;28.60;71.80;;;;;;5034742;28;20131;-66
2022/08/16 10:37:50;;;;;;;5.60;2.97;;;28.70;67.60;;;;;;5053330;28;20503;-66
2022/08/16 10:40:19;;;;;;;5.05;3.38;;;28.70;68.00;;;;;;5053722;28;20055;-65
2022/08/16 10:42:58;;;;;;;3.38;3.03;;;28.80;67.70;;;;;;5054102;28;20044;-65
2022/08/16 10:45:28;;;;;;;3.38;3.08;;;28.90;66.10;;;;;;5055144;28;20044;-67
2022/08/16 10:48:05;;;;;;;3.80;3.03;;;28.90;64.40;;;;;;5054552;28;20043;-68
2022/08/16 10:50:55;;;;;;;6.70;3.25;;;28.90;65.90;;;;;;5039608;28;20037;-66
2022/08/16 10:53:26;;;;;;;5.35;3.17;;;29.10;62.80;;;;;;5053874;28;20041;-66
2022/08/16 10:56:01;;;;;;;6.78;3.20;;;29.10;59.80;;;;;;5054685;28;20086;-68
2022/08/16 10:58:32;;;;;;;3.17;2.88;;;29.20;62.00;;;;;;5053969;28;20893;-68
2022/08/16 11:01:05;;;;;;;4.63;2.63;;;29.20;63.00;;;;;;5054291;28;20140;-67
2022/08/16 11:03:53;;;;;;;3.38;2.80;;;29.40;60.00;;;;;;5053796;28;20149;-66
2022/08/16 11:06:23;;;;;;;3.65;2.35;;;29.40;61.70;;;;;;5054246;28;20044;-67
2022/08/16 11:08:55;;;;;;;5.07;3.50;;;29.40;59.70;;;;;;5054154;28;20286;-67
2022/08/16 11:11:42;;;;;;;7.80;2.90;;;29.40;57.00;;;;;;5053249;28;20763;-70
2022/08/16 11:14:29;;;;;;;4.97;2.75;;;29.40;55.50;;;;;;5036686;28;20056;-66
2022/08/16 11:17:00;;;;;;;3.63;2.83;;;29.30;56.60;;;;;;5035386;28;20530;-65
2022/08/16 11:19:35;;;;;;;4.20;2.70;;;29.20;57.50;;;;;;5052806;28;20052;-65
2022/08/16 11:22:21;;;;;;;4.05;2.83;;;29.20;56.80;;;;;;5053957;28;20044;-66
2022/08/16 11:25:10;;;;;;;6.07;2.80;;;29.30;57.00;;;;;;5052917;28;20044;-67
2022/08/16 11:27:58;;;;;;;5.47;3.20;;;29.40;56.00;;;;;;5053054;28;20780;-65
2022/08/16 11:30:26;;;;;;;3.83;3.17;;;29.40;55.70;;;;;;5054101;28;20059;-67
2022/08/16 11:33:04;;;;;;;5.13;2.75;;;29.50;56.10;;;;;;5053261;28;20044;-66
2022/08/16 11:35:33;;;;;;;3.30;2.63;;;29.60;56.70;;;;;;5052470;28;20043;-68
2022/08/16 11:38:22;;;;;;;6.57;2.97;;;29.70;55.60;;;;;;5052626;28;20048;-68
2022/08/16 11:41:09;;;;;;;4.10;2.17;;;29.80;55.60;;;;;;5052937;28;20943;-66
2022/08/16 11:43:39;;;;;;;5.47;2.75;;;29.80;55.20;;;;;;5052982;28;20127;-67
2022/08/16 11:46:09;;;;;;;4.35;2.78;;;29.90;54.70;;;;;;5052425;28;20033;-63
2022/08/16 11:48:57;;;;;;;4.47;3.05;;;29.80;52.90;;;;;;5033891;28;20041;-65
2022/08/16 11:51:23;;;;;;;4.05;2.38;;;29.80;54.30;;;;;;5032622;28;20044;-63
2022/08/16 11:53:51;;;;;;;6.22;2.72;;;29.80;54.80;;;;;;5034089;28;20056;-62
2022/08/16 11:56:19;;;;;;;2.90;2.60;;;29.70;53.00;;;;;;5033956;28;20065;-61
2022/08/16 11:59:06;;;;;;;;;;;29.80;53.80;;;;;;5035304;28;20045;-62
2022/08/16 12:01:33;;;;;;;3.95;2.83;;;29.90;53.00;;;;;;5033622;28;19952;-63
2022/08/16 12:04:20;;;;;;;9.68;2.60;;;30.10;53.60;;;;;;5033735;28;20048;-63
2022/08/16 12:06:48;;;;;;;3.63;2.38;;;30.10;53.70;;;;;;5034076;28;20048;-62
2022/08/16 12:09:16;;;;;;;4.75;2.58;;;30.20;53.40;;;;;;5048601;28;20068;-66
2022/08/16 12:11:43;;;;;;;3.85;2.13;;;30.20;52.70;;;;;;5051206;28;20136;-62
2022/08/16 12:14:13;;;;;;;3.30;2.50;;;30.20;53.30;;;;;;5044927;28;20103;-62
2022/08/16 12:16:42;;;;;;;6.82;2.70;;;30.30;53.20;;;;;;5031973;28;20049;-68
2022/08/16 12:19:22;;;;;;;3.92;2.35;;;30.40;51.50;;;;;;5034083;28;20053;-66
2022/08/16 12:22:03;;;;;;;9.85;2.45;;;30.50;54.10;;;;;;5033465;28;20128;-66
2022/08/16 12:24:32;;;;;;;3.65;2.55;;;30.60;51.50;;;;;;5032507;28;20144;-62
2022/08/16 12:27:01;;;;;;;2.88;2.50;;;30.60;53.40;;;;;;5033339;28;20102;-65
2022/08/16 12:29:28;;;;;;;3.63;2.28;;;30.80;51.60;;;;;;5032593;28;20048;-65
2022/08/16 12:31:56;;;;;;;4.22;2.50;;;30.70;48.60;;;;;;5031828;28;20060;-66
2022/08/16 12:34:43;;;;;;;5.55;2.50;;;30.60;50.70;;;;;;5048749;28;20127;-66
2022/08/16 12:37:19;;;;;;;4.65;2.83;;;30.60;50.90;;;;;;5052700;28;20102;-68
2022/08/16 12:39:46;;;;;;;3.28;2.38;;;30.50;51.30;;;;;;5055482;28;20127;-67
2022/08/16 12:42:18;;;;;;;4.57;2.22;;;30.50;51.70;;;;;;5057079;28;20109;-69
2022/08/16 12:44:47;;;;;;;6.10;2.75;;;30.60;50.70;;;;;;5054634;28;20051;-68
2022/08/16 12:50:06;;;;;;;5.40;2.50;;;30.60;49.10;;;;;;5056365;28;20113;-66
2022/08/16 12:52:36;;;;;;;2.35;2.10;;;30.70;49.40;;;;;;5054141;28;20422;-66
2022/08/16 12:55:18;;;;;;;5.50;2.45;;;30.80;49.40;;;;;;5057605;28;20582;-68
2022/08/16 12:57:46;;;;;;;2.88;1.98;;;30.80;49.80;;;;;;5056936;28;20053;-66
2022/08/16 13:00:29;;;;;;;7.57;2.42;;;30.80;49.30;;;;;;5057298;28;20056;-67
2022/08/16 13:03:01;;;;;;;3.65;2.20;;;30.90;50.20;;;;;;5055403;28;20040;-67
2022/08/16 13:05:30;;;;;;;3.35;2.50;;;31.00;51.60;;;;;;5054933;28;20143;-66
2022/08/16 13:07:57;;;;;;;3.20;2.30;;;31.00;49.70;;;;;;5056063;28;20120;-65
2022/08/16 13:10:28;;;;;;;6.18;2.60;;;31.10;48.20;;;;;;5055146;28;20041;-67
2022/08/16 13:13:06;;;;;;;4.65;3.08;;;31.10;46.40;;;;;;5055620;28;20055;-68
2022/08/16 13:15:35;;;;;;;3.97;2.63;;;31.10;49.80;;;;;;5045504;28;20040;-65
2022/08/16 13:18:24;;;;;;;5.68;2.53;;;31.10;49.90;;;;;;5036009;28;20098;-66
2022/08/16 13:21:05;;;;;;;3.45;2.30;;;31.10;50.00;;;;;;5036733;28;20048;-68
2022/08/16 13:23:33;;;;;;;2.92;2.30;;;31.10;49.60;;;;;;5035477;28;20081;-68
2022/08/16 13:26:02;;;;;;;4.32;2.67;;;31.20;49.70;;;;;;5036416;28;20095;-69
2022/08/16 13:28:29;;;;;;;2.22;2.03;;;31.20;48.70;;;;;;5036215;28;20127;-67
2022/08/16 13:30:57;;;;;;;3.10;2.55;;;31.20;49.70;;;;;;5034244;28;20507;-68
2022/08/16 13:33:35;;;;;;;4.25;2.38;;;31.30;49.70;;;;;;5042902;28;20036;-70